Time;durP1;ratioP1;P1;durP2;ratioP2;P2;SDS_P1;SDS_P2;PMS_P1;PMS_P2;Temp;Humidity;BMP_temperature;BMP_pressure;BME280_temperature;BME280_humidity;BME280_pressure;Samples;Min_cycle;Max_cycle;Signal;HPM_P1;HPM_P2
2024/01/20 00:01:26;;;;;;;13.60;8.53;;;0.20;94.90;;;;;;4989095;28;20476;-55
2024/01/20 00:03:53;;;;;;;14.67;9.47;;;0.20;91.90;;;;;;4992308;28;20531;-53
2024/01/20 00:06:19;;;;;;;14.77;8.23;;;0.20;95.00;;;;;;4993100;28;21000;-54
2024/01/20 00:08:46;;;;;;;13.37;7.90;;;0.20;93.30;;;;;;4992088;28;20448;-54
2024/01/20 00:11:13;;;;;;;10.30;7.87;;;0.20;94.40;;;;;;4988392;28;20477;-53
2024/01/20 00:13:41;;;;;;;11.40;7.90;;;0.20;94.00;;;;;;4993128;28;20483;-53
2024/01/20 00:16:09;;;;;;;19.57;9.77;;;0.20;93.80;;;;;;4991347;28;20452;-54
2024/01/20 00:18:35;;;;;;;12.93;8.00;;;0.20;94.30;;;;;;4985561;28;20484;-54
2024/01/20 00:21:02;;;;;;;15.43;7.80;;;0.10;93.30;;;;;;4990440;28;20508;-54
2024/01/20 00:23:28;;;;;;;14.27;8.13;;;0.10;94.60;;;;;;4987365;28;20480;-55
2024/01/20 00:25:55;;;;;;;11.80;8.43;;;0.10;91.70;;;;;;4982577;28;20445;-56
2024/01/20 00:28:21;;;;;;;14.07;8.23;;;0.10;92.50;;;;;;4983780;28;20472;-54
2024/01/20 00:30:49;;;;;;;10.93;7.90;;;0.10;93.30;;;;;;4992365;28;20469;-53
2024/01/20 00:33:16;;;;;;;13.70;7.73;;;0.10;93.40;;;;;;4986805;28;20474;-55
2024/01/20 00:35:44;;;;;;;15.93;8.87;;;0.10;92.80;;;;;;4988731;28;20482;-55
2024/01/20 00:38:11;;;;;;;15.30;8.20;;;0.00;90.10;;;;;;4990567;28;20712;-54
2024/01/20 00:40:37;;;;;;;17.97;8.90;;;0.00;89.90;;;;;;4993055;28;20475;-53
2024/01/20 00:43:04;;;;;;;11.90;7.37;;;0.00;91.00;;;;;;4977051;28;20468;-53
2024/01/20 00:45:30;;;;;;;14.47;8.83;;;0.00;89.20;;;;;;4993906;28;20476;-55
2024/01/20 00:47:58;;;;;;;14.63;8.50;;;0.00;87.60;;;;;;4982810;28;20932;-55
2024/01/20 00:50:25;;;;;;;15.60;8.50;;;-0.10;88.30;;;;;;4993135;28;20471;-55
2024/01/20 00:52:52;;;;;;;16.07;8.73;;;-0.10;89.00;;;;;;4989969;28;20519;-55
2024/01/20 00:55:18;;;;;;;20.30;10.10;;;-0.10;87.60;;;;;;4992984;28;20582;-55
2024/01/20 00:57:45;;;;;;;12.33;7.83;;;-0.10;87.80;;;;;;4989250;28;20472;-54
2024/01/20 01:00:12;;;;;;;9.03;7.70;;;-0.10;88.40;;;;;;4988998;28;21101;-53
2024/01/20 01:02:39;;;;;;;13.57;7.93;;;-0.10;88.80;;;;;;4989180;28;20496;-53
2024/01/20 01:05:08;;;;;;;14.67;7.90;;;-0.10;86.00;;;;;;4987132;28;20524;-55
2024/01/20 01:07:35;;;;;;;19.07;8.57;;;-0.10;85.10;;;;;;4991624;28;20549;-55
2024/01/20 01:10:03;;;;;;;15.83;8.33;;;-0.10;87.20;;;;;;4992759;28;20810;-53
2024/01/20 01:12:29;;;;;;;10.80;7.77;;;-0.10;87.10;;;;;;4990449;28;20473;-54
2024/01/20 01:14:56;;;;;;;11.87;8.60;;;-0.10;88.00;;;;;;4994231;28;20444;-55
2024/01/20 01:17:23;;;;;;;11.73;7.50;;;-0.10;87.10;;;;;;4992359;28;20511;-55
2024/01/20 01:19:49;;;;;;;9.60;7.30;;;-0.10;85.20;;;;;;4993809;28;20468;-54
2024/01/20 01:22:17;;;;;;;12.40;7.27;;;-0.10;86.40;;;;;;4975906;28;20445;-54
2024/01/20 01:24:44;;;;;;;9.43;7.03;;;-0.10;84.20;;;;;;4991948;28;20483;-53
2024/01/20 01:27:10;;;;;;;16.97;9.10;;;-0.10;86.30;;;;;;4988921;28;20437;-53
2024/01/20 01:29:37;;;;;;;10.60;7.50;;;0.00;86.20;;;;;;4987189;28;20489;-54
2024/01/20 01:32:04;;;;;;;12.87;8.50;;;-0.10;84.90;;;;;;4991964;28;20435;-54
2024/01/20 01:34:30;;;;;;;14.20;8.80;;;-0.10;83.30;;;;;;4984157;28;20523;-55
2024/01/20 01:36:57;;;;;;;12.63;8.33;;;0.00;85.60;;;;;;4989260;28;21033;-55
2024/01/20 01:39:25;;;;;;;11.50;7.70;;;0.00;85.10;;;;;;4976424;28;20469;-55
2024/01/20 01:41:51;;;;;;;13.33;8.70;;;0.00;84.80;;;;;;4992364;28;20955;-55
2024/01/20 01:44:18;;;;;;;17.53;8.60;;;0.00;84.90;;;;;;4989217;28;20882;-55
2024/01/20 01:46:45;;;;;;;16.50;8.50;;;0.00;82.70;;;;;;4987783;28;20527;-53
2024/01/20 01:49:11;;;;;;;16.13;10.17;;;-0.10;84.40;;;;;;4987527;28;21038;-54
2024/01/20 01:51:39;;;;;;;12.53;8.70;;;0.00;82.10;;;;;;4982962;28;21001;-54
2024/01/20 01:54:06;;;;;;;14.80;8.17;;;-0.10;82.30;;;;;;4985727;28;20485;-56
2024/01/20 01:56:34;;;;;;;11.50;7.30;;;0.00;82.10;;;;;;4978151;28;20480;-54
2024/01/20 01:59:00;;;;;;;13.40;7.93;;;0.00;82.80;;;;;;4995220;28;20506;-53
2024/01/20 02:01:27;;;;;;;15.40;8.83;;;0.00;80.70;;;;;;4984483;28;20452;-54
2024/01/20 02:03:53;;;;;;;12.67;7.90;;;0.00;84.50;;;;;;4978712;28;20524;-55
2024/01/20 02:06:20;;;;;;;15.97;7.93;;;0.00;86.30;;;;;;4986080;28;20446;-54
2024/01/20 02:08:47;;;;;;;14.10;8.40;;;0.00;86.00;;;;;;4987224;28;20449;-53
2024/01/20 02:11:15;;;;;;;16.40;9.03;;;0.00;86.50;;;;;;4985573;28;20864;-53
2024/01/20 02:13:43;;;;;;;12.53;8.80;;;0.00;87.90;;;;;;4984699;28;20802;-54
2024/01/20 02:16:10;;;;;;;16.13;9.10;;;0.00;87.30;;;;;;4982474;28;20931;-54
2024/01/20 02:18:36;;;;;;;14.83;10.33;;;-0.10;85.20;;;;;;4985654;28;20536;-53
2024/01/20 02:21:05;;;;;;;15.83;9.07;;;-0.10;84.30;;;;;;4979546;28;20488;-54
2024/01/20 02:23:37;;;;;;;15.00;9.10;;;-0.10;81.20;;;;;;4977208;28;20508;-54
2024/01/20 02:26:04;;;;;;;16.90;9.27;;;-0.10;81.70;;;;;;4979630;28;20564;-53
2024/01/20 02:28:30;;;;;;;16.70;10.10;;;-0.20;80.90;;;;;;4988772;28;20525;-54
2024/01/20 02:30:57;;;;;;;16.63;9.07;;;-0.20;77.40;;;;;;4988202;28;20468;-53
2024/01/20 02:33:24;;;;;;;13.90;8.90;;;-0.30;75.50;;;;;;4988986;28;20452;-54
2024/01/20 02:35:50;;;;;;;12.20;8.60;;;-0.30;74.00;;;;;;4989717;28;20441;-53
2024/01/20 02:38:17;;;;;;;18.63;9.87;;;-0.40;71.10;;;;;;4987828;28;20442;-53
2024/01/20 02:40:45;;;;;;;12.10;9.33;;;-0.40;67.80;;;;;;4986827;28;20463;-54
2024/01/20 02:43:11;;;;;;;11.23;8.97;;;-0.40;67.40;;;;;;4992537;28;20487;-53
2024/01/20 02:45:38;;;;;;;15.07;9.83;;;-0.40;66.80;;;;;;4988816;28;20490;-52
2024/01/20 02:48:05;;;;;;;17.93;9.30;;;-0.40;65.20;;;;;;4984690;28;21119;-54
2024/01/20 02:50:32;;;;;;;17.57;9.13;;;-0.40;63.30;;;;;;4980784;28;20543;-54
2024/01/20 02:52:58;;;;;;;10.20;8.97;;;-0.40;62.60;;;;;;4978969;28;20507;-55
2024/01/20 02:55:25;;;;;;;18.43;9.80;;;-0.50;60.20;;;;;;4993457;28;20519;-55
2024/01/20 02:57:53;;;;;;;13.20;9.47;;;-0.40;58.00;;;;;;4989520;28;20465;-54
2024/01/20 03:00:19;;;;;;;17.43;11.33;;;-0.40;59.00;;;;;;4985247;28;20472;-58
2024/01/20 03:02:47;;;;;;;15.70;10.80;;;-0.40;59.00;;;;;;4999688;28;20811;-58
2024/01/20 03:05:14;;;;;;;17.27;9.70;;;-0.40;58.80;;;;;;4990254;28;20555;-58
2024/01/20 03:07:40;;;;;;;15.20;9.57;;;-0.40;55.70;;;;;;4985926;28;20807;-57
2024/01/20 03:10:08;;;;;;;11.73;9.00;;;-0.40;54.20;;;;;;5000340;28;20464;-58
2024/01/20 03:12:34;;;;;;;15.67;10.00;;;-0.30;52.70;;;;;;4988713;28;20459;-58
2024/01/20 03:15:03;;;;;;;16.80;10.13;;;-0.20;54.10;;;;;;4989567;28;20470;-57
2024/01/20 03:17:29;;;;;;;14.83;9.80;;;-0.20;55.60;;;;;;4991231;28;20445;-58
2024/01/20 03:19:56;;;;;;;13.83;10.03;;;-0.20;56.60;;;;;;4988045;28;20498;-57
2024/01/20 03:22:23;;;;;;;14.37;10.20;;;-0.10;58.50;;;;;;4996513;28;20460;-58
2024/01/20 03:24:50;;;;;;;13.70;9.17;;;-0.10;59.10;;;;;;4984703;28;20543;-58
2024/01/20 03:27:18;;;;;;;13.67;10.40;;;-0.10;57.90;;;;;;4997769;28;20467;-58
2024/01/20 03:29:44;;;;;;;18.03;9.67;;;-0.20;58.30;;;;;;4993635;28;20465;-58
2024/01/20 03:32:13;;;;;;;16.83;10.07;;;-0.20;55.10;;;;;;4985601;28;20788;-58
2024/01/20 03:34:39;;;;;;;14.73;10.57;;;-0.30;51.90;;;;;;4989355;28;21140;-58
2024/01/20 03:37:06;;;;;;;10.87;8.80;;;-0.30;50.80;;;;;;4984467;28;20445;-58
2024/01/20 03:39:33;;;;;;;13.07;9.87;;;-0.30;47.40;;;;;;4983522;28;21001;-58
2024/01/20 03:41:59;;;;;;;13.40;10.50;;;-0.10;48.60;;;;;;4986578;28;21688;-58
2024/01/20 03:44:26;;;;;;;17.10;10.90;;;-0.10;48.40;;;;;;4991874;28;21057;-57
2024/01/20 03:46:52;;;;;;;17.33;10.90;;;0.00;48.50;;;;;;4988620;28;20875;-57
2024/01/20 03:49:20;;;;;;;14.67;10.63;;;0.00;49.30;;;;;;4988112;28;20519;-58
2024/01/20 03:51:47;;;;;;;12.63;10.07;;;0.10;53.10;;;;;;4991993;28;20444;-58
2024/01/20 03:54:14;;;;;;;15.70;11.03;;;0.20;53.40;;;;;;4988692;28;20504;-58
2024/01/20 03:56:44;;;;;;;14.60;10.47;;;0.20;53.20;;;;;;4986768;28;20869;-57
2024/01/20 03:59:10;;;;;;;15.50;10.80;;;0.30;54.70;;;;;;4992456;28;20468;-58
2024/01/20 04:01:37;;;;;;;13.50;10.63;;;0.30;53.60;;;;;;5007134;28;20466;-58
2024/01/20 04:04:04;;;;;;;12.67;9.50;;;0.40;53.90;;;;;;4982922;28;20448;-58
2024/01/20 04:06:32;;;;;;;15.23;11.70;;;0.40;55.80;;;;;;4990959;28;20479;-59
2024/01/20 04:08:59;;;;;;;18.77;11.13;;;0.40;58.10;;;;;;4984137;28;20444;-57
2024/01/20 04:11:26;;;;;;;13.53;11.00;;;0.50;56.00;;;;;;4986115;28;20943;-58
2024/01/20 04:13:52;;;;;;;17.80;11.93;;;0.50;55.90;;;;;;4984668;28;20862;-58
2024/01/20 04:16:19;;;;;;;19.50;11.07;;;0.50;57.40;;;;;;4990316;28;20507;-58
2024/01/20 04:18:45;;;;;;;14.07;10.70;;;0.50;56.50;;;;;;4982366;28;20449;-59
2024/01/20 04:21:12;;;;;;;18.93;12.47;;;0.50;55.50;;;;;;4984140;28;20481;-58
2024/01/20 04:23:40;;;;;;;14.67;11.30;;;0.50;53.70;;;;;;4981324;28;20454;-58
2024/01/20 04:26:06;;;;;;;11.67;9.90;;;0.50;52.50;;;;;;4988736;28;20550;-58
2024/01/20 04:28:33;;;;;;;15.93;11.07;;;0.60;54.50;;;;;;4985501;28;20453;-58
2024/01/20 04:30:59;;;;;;;17.77;11.00;;;0.50;54.60;;;;;;4985049;28;20514;-58
2024/01/20 04:33:26;;;;;;;16.70;10.90;;;0.50;54.20;;;;;;4986695;28;20508;-58
2024/01/20 04:35:52;;;;;;;16.27;11.27;;;0.60;54.30;;;;;;4983576;28;20449;-58
2024/01/20 04:38:20;;;;;;;17.20;11.67;;;0.60;54.50;;;;;;4994460;28;20508;-58
2024/01/20 04:40:48;;;;;;;10.60;9.10;;;0.60;55.80;;;;;;4989815;28;20480;-58
2024/01/20 04:43:14;;;;;;;15.03;10.70;;;0.50;57.50;;;;;;4995861;28;20446;-57
2024/01/20 04:45:41;;;;;;;16.93;11.40;;;0.50;60.10;;;;;;4992092;28;20927;-57
2024/01/20 04:48:07;;;;;;;13.40;10.30;;;0.50;58.90;;;;;;4983805;28;20543;-58
2024/01/20 04:50:34;;;;;;;20.00;11.27;;;0.40;56.70;;;;;;4985473;28;20507;-58
2024/01/20 04:53:01;;;;;;;16.40;9.83;;;0.40;57.30;;;;;;4983385;28;20445;-57
2024/01/20 04:55:27;;;;;;;13.13;10.80;;;0.40;64.80;;;;;;4991248;28;20441;-57
2024/01/20 04:57:55;;;;;;;17.70;10.13;;;0.40;65.70;;;;;;4986867;28;20477;-58
2024/01/20 05:00:22;;;;;;;16.27;9.97;;;0.40;64.80;;;;;;4989445;28;20473;-59
2024/01/20 05:02:48;;;;;;;10.90;9.80;;;0.40;66.00;;;;;;4990457;28;20454;-58
2024/01/20 05:05:15;;;;;;;13.23;9.93;;;0.40;69.80;;;;;;4986521;28;20481;-57
2024/01/20 05:07:42;;;;;;;14.60;10.03;;;0.40;69.70;;;;;;4995314;28;20456;-58
2024/01/20 05:10:09;;;;;;;14.87;10.27;;;0.40;70.10;;;;;;4982718;28;20465;-57
2024/01/20 05:12:35;;;;;;;15.20;10.20;;;0.40;66.90;;;;;;4990705;28;20448;-58
2024/01/20 05:15:10;;;;;;;12.80;10.10;;;0.40;67.80;;;;;;4993154;28;20445;-57
2024/01/20 05:17:37;;;;;;;14.93;9.87;;;0.40;69.50;;;;;;4985067;28;20441;-59
2024/01/20 05:20:04;;;;;;;12.17;9.70;;;0.40;72.30;;;;;;4991136;28;20465;-59
2024/01/20 05:22:31;;;;;;;16.27;10.67;;;0.40;71.60;;;;;;4985779;28;20492;-60
2024/01/20 05:24:58;;;;;;;12.00;9.63;;;0.40;71.90;;;;;;4996446;28;20537;-58
2024/01/20 05:27:27;;;;;;;12.90;10.30;;;0.40;71.10;;;;;;4983133;28;20446;-58
2024/01/20 05:29:53;;;;;;;12.33;10.10;;;0.50;69.20;;;;;;4987842;28;20846;-57
2024/01/20 05:32:21;;;;;;;13.00;10.20;;;0.40;69.10;;;;;;4989731;28;20447;-59
2024/01/20 05:34:48;;;;;;;12.90;9.93;;;0.40;68.20;;;;;;4983827;28;20449;-58
2024/01/20 05:37:15;;;;;;;19.00;10.10;;;0.40;69.00;;;;;;4992032;28;20496;-57
2024/01/20 05:39:42;;;;;;;12.93;10.07;;;0.40;67.80;;;;;;4990170;28;21006;-58
2024/01/20 05:42:09;;;;;;;13.67;10.40;;;0.30;67.40;;;;;;4989694;28;20472;-58
2024/01/20 05:44:35;;;;;;;17.20;10.23;;;0.20;65.20;;;;;;4982947;28;20460;-58
2024/01/20 05:47:02;;;;;;;15.97;10.47;;;0.20;63.90;;;;;;4983614;28;20477;-58
2024/01/20 05:49:30;;;;;;;14.60;10.23;;;0.10;57.00;;;;;;4993206;28;20499;-57
2024/01/20 05:51:56;;;;;;;14.23;11.30;;;0.10;57.70;;;;;;4994658;28;20444;-58
2024/01/20 05:54:23;;;;;;;12.90;10.40;;;0.10;53.70;;;;;;4991825;28;20799;-58
2024/01/20 05:56:50;;;;;;;16.70;10.33;;;0.10;52.30;;;;;;4986959;28;20443;-57
2024/01/20 05:59:16;;;;;;;16.23;10.83;;;0.10;52.90;;;;;;4982768;28;20516;-58
2024/01/20 06:01:50;;;;;;;17.40;10.20;;;0.10;51.10;;;;;;4981180;28;20457;-57
2024/01/20 06:04:16;;;;;;;20.57;10.10;;;0.00;48.20;;;;;;4994112;28;20437;-58
2024/01/20 06:06:44;;;;;;;15.60;11.20;;;0.10;42.10;;;;;;4996526;28;20538;-58
2024/01/20 06:09:11;;;;;;;12.47;10.87;;;0.00;42.20;;;;;;4991280;28;20554;-57
2024/01/20 06:11:37;;;;;;;15.60;10.87;;;0.00;37.40;;;;;;4984245;28;20863;-58
2024/01/20 06:14:04;;;;;;;14.40;10.30;;;0.10;38.00;;;;;;4988020;28;20503;-57
2024/01/20 06:16:31;;;;;;;16.93;11.00;;;0.00;38.80;;;;;;4991463;28;20476;-59
2024/01/20 06:18:57;;;;;;;12.60;10.10;;;0.00;36.80;;;;;;4994319;28;20459;-58
2024/01/20 06:21:24;;;;;;;16.93;11.57;;;0.00;36.20;;;;;;4987523;28;20443;-58
2024/01/20 06:23:52;;;;;;;15.83;10.27;;;0.10;36.10;;;;;;4988709;28;20821;-58
2024/01/20 06:26:19;;;;;;;15.40;11.17;;;0.10;36.70;;;;;;4981847;28;20587;-58
2024/01/20 06:28:46;;;;;;;13.33;9.80;;;0.10;34.80;;;;;;4984274;28;20449;-57
2024/01/20 06:31:22;;;;;;;16.40;11.27;;;0.10;35.50;;;;;;4994003;28;20444;-58
2024/01/20 06:33:49;;;;;;;17.50;9.50;;;0.10;38.20;;;;;;4994767;28;20436;-57
2024/01/20 06:36:15;;;;;;;15.70;10.60;;;0.00;36.30;;;;;;5003334;28;20442;-57
2024/01/20 06:38:42;;;;;;;16.27;10.70;;;0.00;33.80;;;;;;5001261;28;20954;-58
2024/01/20 06:41:10;;;;;;;20.63;10.00;;;0.10;33.20;;;;;;4992476;28;20448;-58
2024/01/20 06:43:36;;;;;;;20.43;10.10;;;0.10;34.60;;;;;;4987566;28;20512;-58
2024/01/20 06:46:03;;;;;;;13.87;9.33;;;0.20;36.30;;;;;;4994715;28;20482;-58
2024/01/20 06:48:32;;;;;;;14.00;9.77;;;0.20;38.50;;;;;;4999248;28;20842;-56
2024/01/20 06:50:59;;;;;;;17.03;11.37;;;0.20;33.90;;;;;;4999548;28;20839;-58
2024/01/20 06:53:27;;;;;;;12.67;9.53;;;0.10;36.50;;;;;;5002908;28;20846;-58
2024/01/20 06:55:53;;;;;;;14.40;10.60;;;0.10;34.40;;;;;;4989817;28;20441;-57
2024/01/20 06:58:21;;;;;;;16.80;11.57;;;0.20;32.20;;;;;;4997183;28;20814;-58
2024/01/20 07:00:48;;;;;;;12.80;9.60;;;0.20;31.90;;;;;;4988508;28;20477;-58
2024/01/20 07:03:15;;;;;;;16.43;11.10;;;0.20;31.00;;;;;;4990298;28;20456;-58
2024/01/20 07:05:41;;;;;;;16.33;10.50;;;0.30;32.30;;;;;;4996314;28;20480;-57
2024/01/20 07:08:09;;;;;;;16.70;11.20;;;0.40;36.20;;;;;;5001063;28;20873;-58
2024/01/20 07:10:36;;;;;;;12.83;10.03;;;0.50;37.70;;;;;;5005863;28;20550;-58
2024/01/20 07:13:02;;;;;;;17.30;11.43;;;0.50;39.50;;;;;;5008821;28;20875;-57
2024/01/20 07:15:30;;;;;;;14.23;10.70;;;0.50;42.00;;;;;;4994652;28;20468;-57
2024/01/20 07:17:57;;;;;;;15.87;11.70;;;0.60;42.90;;;;;;4995569;28;20966;-58
2024/01/20 07:20:23;;;;;;;16.80;10.50;;;0.60;44.70;;;;;;5000546;28;20467;-58
2024/01/20 07:22:50;;;;;;;18.23;11.10;;;0.60;44.40;;;;;;4991664;28;20468;-59
2024/01/20 07:25:18;;;;;;;16.93;10.53;;;0.70;44.60;;;;;;4989528;28;20465;-59
2024/01/20 07:27:44;;;;;;;16.20;10.17;;;0.70;44.40;;;;;;4999753;28;20465;-58
2024/01/20 07:30:11;;;;;;;17.00;10.47;;;0.80;44.10;;;;;;5001706;28;21040;-58
2024/01/20 07:32:40;;;;;;;13.97;10.77;;;0.80;43.70;;;;;;4994001;28;20517;-58
2024/01/20 07:35:08;;;;;;;18.33;11.20;;;0.90;45.80;;;;;;5006510;28;20535;-59
2024/01/20 07:37:36;;;;;;;13.77;11.13;;;0.90;46.90;;;;;;4995902;28;20523;-58
2024/01/20 07:40:03;;;;;;;16.00;10.63;;;1.00;49.60;;;;;;4997136;28;20472;-57
2024/01/20 07:42:32;;;;;;;14.00;10.17;;;1.00;50.20;;;;;;4987410;28;20481;-58
2024/01/20 07:44:59;;;;;;;16.83;11.73;;;1.10;52.10;;;;;;4977664;28;20547;-58
2024/01/20 07:47:25;;;;;;;18.00;12.00;;;1.10;53.10;;;;;;4989886;28;20495;-58
2024/01/20 07:49:53;;;;;;;16.60;12.20;;;1.10;51.90;;;;;;4989732;28;20534;-57
2024/01/20 07:52:20;;;;;;;14.23;10.70;;;1.10;50.80;;;;;;4985912;28;20496;-57
2024/01/20 07:54:46;;;;;;;12.70;10.97;;;1.10;51.60;;;;;;4984512;28;20981;-58
2024/01/20 07:57:13;;;;;;;15.97;12.07;;;1.20;52.10;;;;;;4982540;28;20987;-57
2024/01/20 07:59:39;;;;;;;19.73;12.27;;;1.20;53.40;;;;;;4987466;28;20500;-58
2024/01/20 08:02:07;;;;;;;18.07;10.93;;;1.20;54.90;;;;;;4992234;28;21104;-57
2024/01/20 08:04:33;;;;;;;18.27;11.97;;;1.30;55.20;;;;;;4991507;28;20539;-58
2024/01/20 08:07:01;;;;;;;18.10;11.30;;;1.30;55.40;;;;;;4989473;28;20488;-58
2024/01/20 08:09:28;;;;;;;17.20;11.83;;;1.30;56.10;;;;;;4988855;28;20480;-58
2024/01/20 08:11:54;;;;;;;17.80;12.07;;;1.30;56.90;;;;;;4989855;28;20898;-57
2024/01/20 08:14:21;;;;;;;17.80;12.23;;;1.30;57.40;;;;;;4990856;28;20511;-59
2024/01/20 08:16:47;;;;;;;21.83;12.53;;;1.30;58.50;;;;;;4993414;28;20609;-57
2024/01/20 08:19:14;;;;;;;16.97;11.60;;;1.30;59.00;;;;;;4991637;28;20488;-58
2024/01/20 08:21:40;;;;;;;21.23;13.50;;;1.20;59.80;;;;;;4994530;28;20542;-57
2024/01/20 08:24:08;;;;;;;17.03;12.07;;;1.20;61.40;;;;;;4990609;28;21017;-58
2024/01/20 08:26:35;;;;;;;17.70;12.20;;;1.20;58.90;;;;;;4991274;28;20570;-58
2024/01/20 08:29:02;;;;;;;19.87;11.70;;;1.20;60.40;;;;;;4992938;28;20464;-58
2024/01/20 08:31:28;;;;;;;15.80;11.00;;;1.20;61.40;;;;;;4976072;28;20477;-58
2024/01/20 08:33:55;;;;;;;14.27;11.27;;;1.20;57.60;;;;;;4983345;28;20472;-59
2024/01/20 08:36:22;;;;;;;17.60;10.70;;;1.20;60.70;;;;;;4988998;28;20461;-58
2024/01/20 08:38:48;;;;;;;14.97;11.67;;;1.20;61.80;;;;;;4988411;28;20468;-57
2024/01/20 08:41:17;;;;;;;17.30;10.90;;;1.20;65.40;;;;;;4985799;28;20521;-58
2024/01/20 08:43:44;;;;;;;16.90;11.97;;;1.20;66.10;;;;;;4987975;28;20456;-57
2024/01/20 08:46:11;;;;;;;22.43;14.40;;;1.20;64.30;;;;;;4984864;28;20484;-58
2024/01/20 08:48:38;;;;;;;20.97;12.77;;;1.20;63.40;;;;;;4989172;28;20563;-57
2024/01/20 08:51:05;;;;;;;15.13;10.67;;;1.20;68.30;;;;;;4997612;28;20485;-60
2024/01/20 08:53:32;;;;;;;14.63;11.07;;;1.20;69.70;;;;;;4997760;28;20499;-59
2024/01/20 08:55:59;;;;;;;14.17;10.67;;;1.20;70.50;;;;;;4992054;28;20496;-58
2024/01/20 08:58:27;;;;;;;14.80;11.93;;;1.20;68.90;;;;;;4996258;28;20547;-58
2024/01/20 09:00:53;;;;;;;18.93;11.80;;;1.20;72.80;;;;;;4987483;28;20496;-58
2024/01/20 09:03:20;;;;;;;13.50;10.90;;;1.30;73.00;;;;;;4986255;28;20469;-57
2024/01/20 09:05:46;;;;;;;17.23;11.70;;;1.20;73.20;;;;;;4991079;28;20476;-57
2024/01/20 09:08:13;;;;;;;16.47;11.10;;;1.20;71.70;;;;;;5001411;28;20521;-58
2024/01/20 09:10:40;;;;;;;15.60;10.60;;;1.20;67.90;;;;;;4983752;28;20480;-58
2024/01/20 09:13:07;;;;;;;18.87;10.20;;;1.30;70.20;;;;;;4988897;28;20584;-59
2024/01/20 09:15:35;;;;;;;14.70;11.33;;;1.30;71.80;;;;;;4987848;28;20491;-57
2024/01/20 09:18:02;;;;;;;18.60;11.50;;;1.30;71.80;;;;;;4984873;28;20964;-59
2024/01/20 09:20:29;;;;;;;16.93;10.97;;;1.30;66.70;;;;;;4986710;28;20563;-57
2024/01/20 09:22:56;;;;;;;16.00;11.67;;;1.30;69.80;;;;;;4992030;28;20461;-58
2024/01/20 09:25:22;;;;;;;19.53;12.37;;;1.30;69.70;;;;;;4985702;28;20882;-58
2024/01/20 09:27:49;;;;;;;16.33;10.40;;;1.40;68.40;;;;;;4987925;28;20546;-58
2024/01/20 09:30:16;;;;;;;16.90;11.30;;;1.40;71.30;;;;;;4976423;28;20473;-58
2024/01/20 09:32:44;;;;;;;15.53;11.43;;;1.40;71.60;;;;;;4986506;28;20465;-58
2024/01/20 09:35:11;;;;;;;13.37;11.07;;;1.50;74.20;;;;;;4979941;28;20500;-57
2024/01/20 09:37:37;;;;;;;11.83;10.23;;;1.50;73.10;;;;;;4988198;28;20456;-57
2024/01/20 09:40:05;;;;;;;14.43;11.03;;;1.40;73.80;;;;;;4989072;28;20530;-60
2024/01/20 09:42:32;;;;;;;14.93;11.07;;;1.50;74.10;;;;;;4989150;28;20464;-57
2024/01/20 09:45:00;;;;;;;14.53;10.97;;;1.50;73.90;;;;;;4988633;28;21037;-59
2024/01/20 09:47:26;;;;;;;17.30;10.80;;;1.50;73.10;;;;;;4989050;28;20563;-58
2024/01/20 09:49:54;;;;;;;15.40;10.20;;;1.60;74.60;;;;;;4987713;28;20484;-58
2024/01/20 09:52:27;;;;;;;13.13;9.40;;;1.60;76.40;;;;;;4991297;28;20468;-59
2024/01/20 09:55:04;;;;;;;15.90;11.77;;;1.70;77.40;;;;;;4992906;28;20514;-59
2024/01/20 09:57:31;;;;;;;21.93;11.63;;;1.70;80.40;;;;;;4993059;28;20884;-58
2024/01/20 10:00:01;;;;;;;15.87;11.20;;;1.70;81.30;;;;;;4991719;28;20550;-58
2024/01/20 10:02:30;;;;;;;19.27;11.27;;;1.70;82.40;;;;;;4988400;28;20463;-58
2024/01/20 10:05:01;;;;;;;18.30;11.33;;;1.80;83.00;;;;;;4992199;28;20531;-58
2024/01/20 10:07:28;;;;;;;13.73;10.30;;;1.90;81.90;;;;;;4999141;28;20534;-58
2024/01/20 10:09:54;;;;;;;15.83;10.57;;;2.00;86.40;;;;;;4991168;28;20492;-61
2024/01/20 10:12:21;;;;;;;12.67;10.27;;;2.30;88.10;;;;;;4989555;28;20506;-58
2024/01/20 10:14:47;;;;;;;16.43;11.30;;;2.40;97.90;;;;;;4988978;28;20816;-58
2024/01/20 10:17:14;;;;;;;17.13;11.30;;;2.50;99.90;;;;;;4989266;28;20456;-58
2024/01/20 10:19:41;;;;;;;16.80;12.30;;;2.60;99.90;;;;;;4987976;28;20531;-57
2024/01/20 10:22:09;;;;;;;13.50;10.90;;;2.50;99.90;;;;;;4985628;28;20465;-59
2024/01/20 10:24:46;;;;;;;14.10;10.43;;;2.50;99.90;;;;;;4984062;28;20947;-58
2024/01/20 10:27:16;;;;;;;16.80;12.20;;;2.50;99.90;;;;;;4986189;28;20531;-60
2024/01/20 10:29:42;;;;;;;17.53;9.47;;;2.60;99.90;;;;;;4987758;28;20546;-57
2024/01/20 10:32:09;;;;;;;15.50;11.00;;;2.50;99.90;;;;;;4984292;28;20464;-57
2024/01/20 10:34:35;;;;;;;14.80;10.77;;;2.50;99.90;;;;;;4988033;28;20511;-58
2024/01/20 10:37:06;;;;;;;10.57;9.17;;;2.40;99.90;;;;;;4993211;28;20497;-58
2024/01/20 10:39:40;;;;;;;18.87;11.90;;;2.40;99.90;;;;;;4986133;28;20990;-58
2024/01/20 10:42:10;;;;;;;10.73;9.37;;;2.30;99.90;;;;;;4995878;28;20499;-57
2024/01/20 10:44:39;;;;;;;14.50;9.67;;;2.30;99.90;;;;;;4999378;28;20454;-57
2024/01/20 10:47:14;;;;;;;13.43;9.90;;;2.10;99.90;;;;;;5000867;28;20487;-58
2024/01/20 10:49:45;;;;;;;15.30;10.07;;;2.00;99.90;;;;;;4996818;28;20460;-59
2024/01/20 10:52:12;;;;;;;19.10;12.73;;;2.10;99.90;;;;;;4996950;28;20444;-59
2024/01/20 10:54:43;;;;;;;18.87;10.33;;;2.10;99.90;;;;;;4992599;28;20476;-58
2024/01/20 10:57:10;;;;;;;17.00;10.17;;;2.00;99.90;;;;;;4999166;28;20529;-58
2024/01/20 10:59:40;;;;;;;18.07;10.87;;;2.00;99.90;;;;;;4994408;28;20465;-58
2024/01/20 11:02:09;;;;;;;14.63;10.97;;;1.90;99.90;;;;;;5008903;28;20443;-60
2024/01/20 11:04:37;;;;;;;14.57;10.47;;;1.90;99.90;;;;;;4995146;28;20449;-59
2024/01/20 11:07:06;;;;;;;15.17;9.53;;;1.90;99.90;;;;;;5001201;28;20853;-58
2024/01/20 11:09:33;;;;;;;15.27;10.27;;;1.90;99.90;;;;;;4993375;28;20463;-59
2024/01/20 11:12:01;;;;;;;17.87;10.27;;;2.00;99.90;;;;;;4994795;28;20465;-59
2024/01/20 11:14:31;;;;;;;13.67;9.63;;;2.00;99.90;;;;;;5000905;28;20518;-58
2024/01/20 11:17:01;;;;;;;11.83;8.57;;;2.00;99.90;;;;;;5002299;28;20484;-58
2024/01/20 11:19:30;;;;;;;14.60;9.93;;;2.00;99.90;;;;;;5000651;28;20477;-59
2024/01/20 11:21:56;;;;;;;11.70;9.43;;;2.10;99.90;;;;;;5003445;28;20449;-59
2024/01/20 11:24:37;;;;;;;18.70;10.23;;;2.00;99.80;;;;;;5006262;28;20923;-59
2024/01/20 11:27:06;;;;;;;19.20;10.10;;;2.00;99.90;;;;;;5008545;28;20488;-59
2024/01/20 11:29:32;;;;;;;15.73;9.40;;;2.10;99.90;;;;;;4998304;28;20565;-58
2024/01/20 11:31:59;;;;;;;17.70;10.97;;;2.20;99.90;;;;;;4993450;28;20460;-58
2024/01/20 11:34:26;;;;;;;11.90;9.80;;;2.30;99.90;;;;;;4997101;28;20526;-58
2024/01/20 11:36:53;;;;;;;13.37;9.70;;;2.30;99.90;;;;;;4997628;28;20440;-58
2024/01/20 11:39:21;;;;;;;14.73;10.30;;;2.50;99.90;;;;;;4997074;28;20472;-58
2024/01/20 11:41:58;;;;;;;14.00;10.00;;;2.60;99.90;;;;;;4996930;28;20455;-58
2024/01/20 11:44:27;;;;;;;14.33;10.10;;;2.60;99.90;;;;;;4993103;28;20450;-58
2024/01/20 11:46:54;;;;;;;20.60;11.10;;;2.60;99.90;;;;;;4992763;28;20575;-58
2024/01/20 11:49:21;;;;;;;13.80;9.10;;;2.60;99.90;;;;;;4995009;28;20807;-58
2024/01/20 11:51:47;;;;;;;14.00;9.83;;;2.60;99.90;;;;;;5010274;28;20468;-59
2024/01/20 11:54:14;;;;;;;13.13;9.87;;;2.70;99.90;;;;;;5016635;28;20997;-58
2024/01/20 11:56:41;;;;;;;16.23;11.33;;;2.90;99.90;;;;;;5020062;28;20470;-59
2024/01/20 11:59:08;;;;;;;20.50;9.10;;;3.10;99.90;;;;;;5019583;28;20456;-59
2024/01/20 12:01:37;;;;;;;21.20;9.73;;;3.10;99.90;;;;;;5007450;28;20452;-59
2024/01/20 12:04:04;;;;;;;15.67;9.23;;;3.10;99.90;;;;;;5008379;28;20507;-59
2024/01/20 12:06:30;;;;;;;10.50;8.40;;;3.20;99.90;;;;;;5000396;28;20456;-59
2024/01/20 12:08:57;;;;;;;13.80;9.13;;;3.30;99.90;;;;;;5007379;28;21037;-58
2024/01/20 12:11:25;;;;;;;11.03;8.63;;;3.30;99.90;;;;;;4997926;28;20940;-60
2024/01/20 12:13:51;;;;;;;12.80;8.93;;;3.30;99.90;;;;;;4993094;28;20456;-58
2024/01/20 12:16:19;;;;;;;12.67;9.33;;;3.30;99.90;;;;;;4998041;28;20448;-58
2024/01/20 12:18:47;;;;;;;13.60;9.47;;;3.30;99.90;;;;;;4990273;28;20500;-58
2024/01/20 12:21:13;;;;;;;15.27;9.90;;;3.80;99.90;;;;;;4990807;28;20448;-59
2024/01/20 12:23:41;;;;;;;12.70;10.27;;;4.30;99.90;;;;;;4996378;28;20498;-58
2024/01/20 12:26:12;;;;;;;13.63;9.03;;;4.20;99.90;;;;;;4991849;28;20464;-57
2024/01/20 12:28:38;;;;;;;14.20;9.13;;;3.70;99.90;;;;;;4991371;28;20907;-58
2024/01/20 12:31:05;;;;;;;12.37;8.97;;;3.80;99.90;;;;;;4992277;28;20464;-57
2024/01/20 12:33:31;;;;;;;12.43;9.47;;;4.00;99.90;;;;;;4993381;28;20452;-58
2024/01/20 12:36:01;;;;;;;15.87;10.33;;;4.50;99.90;;;;;;4994087;28;20444;-59
2024/01/20 12:38:28;;;;;;;12.67;8.70;;;4.40;99.90;;;;;;4992704;28;20456;-58